Terminal Aerodrome Forecast
Issued by NWS

Home | Current Version | Previous Version | Graphics & Text | Print | Product List | Glossary On
Versions: 1 2 3 4 5 6 7 8 9 10 11 12 13 14 15
073
FTUS43 KABR 141357 AAC
TAFMBG
TAF AMD
KMBG 141357Z 1414/1512 17007KT P6SM OVC070
     FM141500 22005KT P6SM VCSH OVC025
     FM141800 32015KT P6SM OVC015
     FM142000 33020G29KT P6SM BKN020
     FM142300 34019G28KT P6SM BKN040=

USA.gov is the U.S. government's official web portal to all federal, state and local government web resources and services.